createdAt,value
2019-03-28T00:01:09.071Z,3.5
2019-03-28T00:04:08.790Z,3.4
2019-03-28T00:07:08.841Z,3.5
2019-03-28T00:10:08.901Z,3.5
2019-03-28T00:13:08.922Z,3
2019-03-28T00:16:08.993Z,2.9
2019-03-28T00:19:09.012Z,2.8
2019-03-28T00:22:08.925Z,3
2019-03-28T00:25:09.127Z,2.8
2019-03-28T00:28:09.049Z,2.8
2019-03-28T00:31:09.925Z,2.8
2019-03-28T00:34:09.019Z,3
2019-03-28T00:37:09.497Z,2.9
2019-03-28T00:40:08.794Z,3.4
2019-03-28T00:43:08.924Z,3.2
2019-03-28T00:46:08.869Z,3.1
2019-03-28T00:49:09.000Z,2.9
2019-03-28T00:52:08.977Z,2.8
2019-03-28T00:55:08.829Z,3
2019-03-28T00:58:09.513Z,3.5
2019-03-28T01:01:08.973Z,3.1
2019-03-28T01:04:08.940Z,3
2019-03-28T01:07:09.078Z,2.9
2019-03-28T01:10:09.155Z,2.9
2019-03-28T01:13:08.974Z,2.8
2019-03-28T01:16:08.824Z,2.7
2019-03-28T01:19:09.004Z,3
2019-03-28T01:22:09.080Z,3
2019-03-28T01:25:09.039Z,3
2019-03-28T01:28:09.023Z,2.9
2019-03-28T01:31:08.804Z,2.9
2019-03-28T01:34:08.922Z,2.9
2019-03-28T01:37:08.939Z,2.8
2019-03-28T01:40:09.034Z,2.8
2019-03-28T01:43:09.008Z,2.8
2019-03-28T01:46:09.026Z,2.9
2019-03-28T01:49:08.851Z,2.8
2019-03-28T01:52:08.837Z,2.7
2019-03-28T01:55:08.947Z,2.8
2019-03-28T01:58:08.963Z,2.8
2019-03-28T02:01:09.325Z,2.9
2019-03-28T02:04:09.004Z,2.9
2019-03-28T02:07:08.829Z,2.9
2019-03-28T02:10:09.111Z,3.2
2019-03-28T02:13:08.916Z,3.1
2019-03-28T02:16:09.032Z,3.3
2019-03-28T02:19:09.116Z,3.1
2019-03-28T02:22:09.095Z,3
2019-03-28T02:25:08.906Z,3
2019-03-28T02:28:08.795Z,3
2019-03-28T02:31:08.931Z,2.9
2019-03-28T02:34:09.159Z,2.9
2019-03-28T02:37:08.732Z,3
2019-03-28T02:40:08.925Z,2.8
2019-03-28T02:43:08.755Z,2.8
2019-03-28T02:46:08.869Z,2.8
2019-03-28T02:49:08.996Z,2.8
2019-03-28T02:52:09.046Z,2.9
2019-03-28T02:55:09.021Z,2.9
2019-03-28T02:58:09.201Z,2.8
2019-03-28T03:01:08.818Z,3
2019-03-28T03:04:09.025Z,2.9
2019-03-28T03:07:08.869Z,2.8
2019-03-28T03:10:09.017Z,2.9
2019-03-28T03:13:09.161Z,2.9
2019-03-28T03:16:08.840Z,3
2019-03-28T03:19:08.839Z,3
2019-03-28T03:22:09.007Z,3
2019-03-28T03:25:09.164Z,2.9
2019-03-28T03:28:08.958Z,2.7
2019-03-28T03:31:09.178Z,2.9
2019-03-28T03:34:08.895Z,2.8
2019-03-28T03:37:08.808Z,2.8
2019-03-28T03:40:08.884Z,2.7
2019-03-28T03:43:08.841Z,2.8
2019-03-28T03:46:08.874Z,2.9
2019-03-28T03:49:09.214Z,2.8
2019-03-28T03:52:08.719Z,2.7
2019-03-28T03:55:08.832Z,2.8
2019-03-28T03:58:19.568Z,2.8
2019-03-28T04:01:09.138Z,2.9
2019-03-28T04:04:09.132Z,3
2019-03-28T04:07:08.716Z,2.8
2019-03-28T04:10:09.810Z,2.8
2019-03-28T04:13:08.802Z,2.9
2019-03-28T04:16:08.912Z,2.8
2019-03-28T04:19:08.936Z,3.1
2019-03-28T04:22:10.476Z,3
2019-03-28T04:25:08.925Z,2.9
2019-03-28T04:28:08.944Z,3
2019-03-28T04:31:09.104Z,3
2019-03-28T04:34:10.306Z,3
2019-03-28T04:37:08.928Z,2.9
2019-03-28T04:40:09.324Z,2.9
2019-03-28T04:43:08.774Z,2.7
2019-03-28T04:46:08.835Z,2.8
2019-03-28T04:49:08.936Z,2.7
2019-03-28T04:52:08.880Z,2.9
2019-03-28T04:55:08.989Z,2.8
2019-03-28T04:58:08.747Z,2.8
2019-03-28T05:01:08.823Z,2.7
2019-03-28T05:04:08.897Z,2.8
2019-03-28T05:07:09.125Z,2.8
2019-03-28T05:10:08.992Z,2.7
2019-03-28T05:13:08.696Z,2.7
2019-03-28T05:16:08.792Z,2.6
2019-03-28T05:19:08.791Z,2.7
2019-03-28T05:22:08.983Z,2.6
2019-03-28T05:25:08.915Z,2.8
2019-03-28T05:28:08.941Z,2.8
2019-03-28T05:31:08.771Z,2.6
2019-03-28T05:34:08.917Z,2.8
2019-03-28T05:37:09.040Z,2.8
2019-03-28T05:40:08.917Z,2.8
2019-03-28T05:43:09.129Z,2.7
2019-03-28T05:46:08.682Z,2.6
2019-03-28T05:49:08.458Z,2.6
2019-03-28T05:52:12.157Z,2.5
2019-03-28T05:55:08.868Z,2.6
2019-03-28T05:58:10.067Z,2.6
2019-03-28T06:01:08.706Z,2.5
2019-03-28T06:04:08.768Z,2.6
2019-03-28T06:07:10.793Z,2.7
2019-03-28T06:10:08.918Z,2.7
2019-03-28T06:13:08.933Z,2.8
2019-03-28T06:16:08.925Z,2.9
2019-03-28T06:19:08.934Z,2.9
2019-03-28T06:22:08.769Z,2.9
2019-03-28T06:25:08.853Z,2.9
2019-03-28T06:28:08.848Z,3
2019-03-28T06:31:08.866Z,2.9
2019-03-28T06:34:08.814Z,2.8
2019-03-28T06:37:08.767Z,3.1
2019-03-28T06:40:08.917Z,3.1
2019-03-28T06:43:08.803Z,3
2019-03-28T06:46:09.011Z,2.9
2019-03-28T06:49:08.948Z,2.9
2019-03-28T06:52:08.700Z,3
2019-03-28T06:55:08.809Z,2.8
2019-03-28T06:58:08.921Z,2.9
2019-03-28T07:01:08.521Z,2.9
2019-03-28T07:04:08.871Z,3
2019-03-28T07:07:08.680Z,3.1
2019-03-28T07:10:08.755Z,3.1
2019-03-28T07:13:08.847Z,2.9
2019-03-28T07:16:08.797Z,3
2019-03-28T07:19:08.867Z,3.1
2019-03-28T07:22:08.890Z,3.3
2019-03-28T07:25:08.664Z,3.2
2019-03-28T07:28:09.809Z,3.2
2019-03-28T07:31:08.705Z,3.1
2019-03-28T07:34:08.840Z,3.1
2019-03-28T07:37:08.948Z,3
2019-03-28T07:40:08.997Z,3.1
2019-03-28T07:43:08.765Z,3.1
2019-03-28T07:46:08.836Z,3.1
2019-03-28T07:49:08.766Z,3.2
2019-03-28T07:52:08.801Z,3.6
2019-03-28T07:55:08.806Z,3.4
2019-03-28T07:58:09.704Z,3.2
2019-03-28T08:01:08.683Z,3.2
2019-03-28T08:04:08.690Z,3.3
2019-03-28T08:07:08.341Z,3.2
2019-03-28T08:10:08.441Z,3.3
2019-03-28T08:13:08.601Z,3.3
2019-03-28T08:16:08.493Z,3.3
2019-03-28T08:19:08.529Z,3.1
2019-03-28T08:22:08.434Z,3.1
2019-03-28T08:25:14.255Z,3
2019-03-28T08:28:08.643Z,3.1
2019-03-28T08:31:08.478Z,3.1
2019-03-28T08:34:08.522Z,3.1
2019-03-28T08:37:08.299Z,3
2019-03-28T08:40:08.331Z,3
2019-03-28T08:43:08.452Z,3.1
2019-03-28T08:46:09.358Z,3.1
2019-03-28T08:49:08.415Z,3.2
2019-03-28T08:52:12.297Z,3.4
2019-03-28T08:55:10.680Z,3.8
2019-03-28T08:58:08.355Z,4
2019-03-28T09:01:08.403Z,3.9
2019-03-28T09:04:08.548Z,3.8
2019-03-28T09:07:08.519Z,3.4
2019-03-28T09:10:08.559Z,3.6
2019-03-28T09:13:08.233Z,3.9
2019-03-28T09:16:08.287Z,4.1
2019-03-28T09:19:08.319Z,7.1
2019-03-28T09:22:08.343Z,6.3
2019-03-28T09:25:08.552Z,6.1
2019-03-28T09:28:08.489Z,5.6
2019-03-28T09:31:20.715Z,5.6
2019-03-28T09:34:08.315Z,8.1
2019-03-28T09:37:08.345Z,8.2
2019-03-28T09:40:08.399Z,6.4
2019-03-28T09:43:08.442Z,6.7
2019-03-28T09:46:08.581Z,6
2019-03-28T09:49:08.245Z,6.6
2019-03-28T09:52:08.253Z,5.2
2019-03-28T09:55:08.313Z,4.9
2019-03-28T09:58:08.354Z,4.6
2019-03-28T10:01:08.434Z,4.4
2019-03-28T10:04:08.432Z,3.9
2019-03-28T10:07:08.554Z,4.4
2019-03-28T10:10:09.864Z,4.8
2019-03-28T10:13:08.396Z,4.6
2019-03-28T10:16:10.046Z,4.6
2019-03-28T10:19:08.451Z,4.1
2019-03-28T10:22:08.492Z,5
2019-03-28T10:25:08.486Z,5.3
2019-03-28T10:28:08.246Z,4.6
2019-03-28T10:31:17.281Z,4.6
2019-03-28T10:34:08.290Z,4.4
2019-03-28T10:37:08.601Z,4.9
2019-03-28T10:40:08.406Z,4.3
2019-03-28T10:43:08.445Z,3.7
2019-03-28T10:46:08.379Z,4.2
2019-03-28T10:49:08.361Z,4.4
2019-03-28T10:52:12.403Z,4.2
2019-03-28T10:55:08.476Z,4.4
2019-03-28T10:58:20.145Z,5.6
2019-03-28T11:01:08.548Z,4.6
2019-03-28T11:04:08.188Z,4.2
2019-03-28T11:07:08.236Z,3.9
2019-03-28T11:10:08.276Z,3.9
2019-03-28T11:13:10.357Z,3.6
2019-03-28T11:16:08.490Z,3.6
2019-03-28T11:19:08.457Z,3.5
2019-03-28T11:22:08.433Z,3.7
2019-03-28T11:25:08.446Z,3.5
2019-03-28T11:28:08.662Z,3.5
2019-03-28T11:31:08.325Z,4
2019-03-28T11:34:08.514Z,3.5
2019-03-28T11:37:28.618Z,4.4
2019-03-28T11:40:09.939Z,4.6
2019-03-28T11:43:08.550Z,7.9
2019-03-28T11:46:08.344Z,5.6
2019-03-28T11:49:08.361Z,4.4
2019-03-28T11:52:08.382Z,4.3
2019-03-28T11:55:08.390Z,3.8
2019-03-28T11:58:08.467Z,4.4
2019-03-28T12:01:08.250Z,3.9
2019-03-28T12:04:08.939Z,3.3
2019-03-28T12:07:08.483Z,3.1
2019-03-28T12:10:08.368Z,3
2019-03-28T12:13:08.396Z,3
2019-03-28T12:16:08.442Z,3.3
2019-03-28T12:19:08.175Z,3.5
2019-03-28T12:22:09.358Z,3.3
2019-03-28T12:25:08.301Z,3.2
2019-03-28T12:28:08.308Z,3.2
2019-03-28T12:31:08.636Z,3
2019-03-28T12:34:08.438Z,2.7
2019-03-28T12:37:08.194Z,3
2019-03-28T12:40:08.338Z,2.8
2019-03-28T12:43:08.363Z,3.1
2019-03-28T12:46:08.371Z,2.9
2019-03-28T12:49:08.418Z,3
2019-03-28T12:52:08.520Z,2.8
2019-03-28T12:55:08.221Z,4.7
2019-03-28T12:58:08.198Z,4.2
2019-03-28T13:01:08.275Z,4.3
2019-03-28T13:04:08.497Z,5.8
2019-03-28T13:07:08.317Z,5.3
2019-03-28T13:10:08.396Z,5
2019-03-28T13:13:08.189Z,4.3
2019-03-28T13:16:08.254Z,4.3
2019-03-28T13:19:08.315Z,3.7
2019-03-28T13:22:08.456Z,3.8
2019-03-28T13:25:08.380Z,4.3
2019-03-28T13:28:08.516Z,3.7
2019-03-28T13:31:08.521Z,3.4
2019-03-28T13:34:08.212Z,3.1
2019-03-28T13:37:08.348Z,3.1
2019-03-28T13:40:08.366Z,3
2019-03-28T13:43:08.330Z,3.1
2019-03-28T13:46:08.510Z,3.1
2019-03-28T13:49:08.180Z,2.9
2019-03-28T13:52:08.200Z,2.6
2019-03-28T13:55:08.262Z,2.6
2019-03-28T13:58:08.300Z,3.2
2019-03-28T14:01:08.341Z,4.3
2019-03-28T14:04:08.376Z,5.6
2019-03-28T14:07:08.497Z,7.1
2019-03-28T14:10:08.162Z,6.6
2019-03-28T14:13:08.321Z,6.6
2019-03-28T14:16:08.297Z,6.3
2019-03-28T14:19:08.273Z,6.5
2019-03-28T14:22:08.271Z,7.1
2019-03-28T14:25:08.348Z,11.3
2019-03-28T14:28:08.205Z,9.9
2019-03-28T14:31:08.347Z,10.1
2019-03-28T14:34:08.239Z,8.9
2019-03-28T14:37:08.297Z,7.4
2019-03-28T14:40:08.470Z,6.9
2019-03-28T14:43:11.240Z,7.1
2019-03-28T14:46:08.479Z,6.6
2019-03-28T14:49:09.215Z,6.4
2019-03-28T14:52:08.872Z,5.9
2019-03-28T14:55:08.198Z,5.7
2019-03-28T14:58:08.290Z,5.4
2019-03-28T15:01:08.459Z,4.9
2019-03-28T15:04:08.435Z,4.3
2019-03-28T15:07:08.359Z,3.8
2019-03-28T15:15:24.618Z,4.8
2019-03-28T15:18:24.676Z,4.4
2019-03-28T15:21:24.673Z,4.1
2019-03-28T15:24:24.546Z,3.7
2019-03-28T15:27:24.588Z,3.2
2019-03-28T15:30:24.696Z,3
2019-03-28T15:33:40.419Z,3.1
2019-03-28T15:36:24.704Z,2.8
2019-03-28T15:39:24.512Z,3
2019-03-28T15:42:28.480Z,3
2019-03-28T15:45:24.762Z,2.6
2019-03-28T15:48:24.757Z,2.6
2019-03-28T15:51:24.608Z,2.4
2019-03-28T15:54:24.845Z,2.5
2019-03-28T15:57:24.978Z,4.3
2019-03-28T16:00:24.431Z,3.8
2019-03-28T16:03:24.621Z,3.8
2019-03-28T16:06:24.594Z,4.8
2019-03-28T16:09:24.625Z,4.3
2019-03-28T16:12:24.679Z,3.7
2019-03-28T16:15:24.548Z,5
2019-03-28T16:18:24.942Z,3.8
2019-03-28T16:21:27.378Z,3
2019-03-28T16:24:24.595Z,3.4
2019-03-28T16:27:24.462Z,3.5
2019-03-28T16:30:26.098Z,3.3
2019-03-28T16:33:24.584Z,8.2
2019-03-28T16:36:24.450Z,7.4
2019-03-28T16:39:24.892Z,6.8
2019-03-28T16:42:24.615Z,5.5
2019-03-28T16:45:24.624Z,6.3
2019-03-28T16:48:24.741Z,5.8
2019-03-28T16:51:26.504Z,6.1
2019-03-28T16:54:24.476Z,6.1
2019-03-28T16:57:24.593Z,4.3
2019-03-28T17:00:24.594Z,4.6
2019-03-28T17:03:24.665Z,3.9
2019-03-28T17:06:24.598Z,4.7
2019-03-28T17:09:24.748Z,4.1
2019-03-28T17:12:24.558Z,3.1
2019-03-28T17:15:26.208Z,3.6
2019-03-28T17:18:24.693Z,3.3
2019-03-28T17:21:24.583Z,3.6
2019-03-28T17:24:24.629Z,3.2
2019-03-28T17:27:24.687Z,2.8
2019-03-28T17:30:24.797Z,2.8
2019-03-28T17:33:24.620Z,3.3
2019-03-28T17:36:27.435Z,2.6
2019-03-28T17:39:24.594Z,2.3
2019-03-28T17:42:24.569Z,2.2
2019-03-28T17:45:26.277Z,2.4
2019-03-28T17:48:24.633Z,2.1
2019-03-28T17:51:24.488Z,2.1
2019-03-28T17:54:24.526Z,1.9
2019-03-28T17:57:24.751Z,2.2
2019-03-28T18:00:28.726Z,2.1
2019-03-28T18:03:32.013Z,2.5
2019-03-28T18:06:24.658Z,2
2019-03-28T18:09:24.460Z,1.9
2019-03-28T18:12:24.563Z,1.8
2019-03-28T18:15:24.350Z,2
2019-03-28T18:18:24.516Z,2.3
2019-03-28T18:21:24.604Z,2.1
2019-03-28T18:24:24.603Z,2.1
2019-03-28T18:27:24.582Z,1.8
2019-03-28T18:30:24.463Z,1.7
2019-03-28T18:33:24.558Z,1.6
2019-03-28T18:36:24.696Z,1.7
2019-03-28T18:39:24.698Z,2.1
2019-03-28T18:42:25.879Z,1.8
2019-03-28T18:45:24.414Z,1.7
2019-03-28T18:48:38.761Z,1.7
2019-03-28T18:51:25.594Z,1.7
2019-03-28T18:54:24.382Z,1.7
2019-03-28T18:57:24.708Z,1.6
2019-03-28T19:00:24.599Z,1.5
2019-03-28T19:03:24.419Z,1.6
2019-03-28T19:06:24.469Z,1.6
2019-03-28T19:09:24.516Z,1.5
2019-03-28T19:12:24.653Z,1.5
2019-03-28T19:15:24.852Z,1.5
2019-03-28T19:18:26.207Z,1.6
2019-03-28T19:21:25.667Z,1.6
2019-03-28T19:24:24.378Z,1.7
2019-03-28T19:27:24.494Z,1.9
2019-03-28T19:30:24.479Z,1.7
2019-03-28T19:33:24.598Z,2
2019-03-28T19:36:24.486Z,1.8
2019-03-28T19:39:24.452Z,1.7
2019-03-28T19:42:24.364Z,1.6
2019-03-28T19:45:24.470Z,1.7
2019-03-28T19:48:24.661Z,1.6
2019-03-28T19:51:24.556Z,1.6
2019-03-28T19:54:24.742Z,1.5
2019-03-28T19:57:24.758Z,1.6
2019-03-28T20:00:24.540Z,1.7
2019-03-28T20:03:24.548Z,1.7
2019-03-28T20:06:24.942Z,3.1
2019-03-28T20:09:24.608Z,2.5
2019-03-28T20:12:24.924Z,2.1
2019-03-28T20:15:24.603Z,2.4
2019-03-28T20:18:24.563Z,2.2
2019-03-28T20:21:24.724Z,2.6
2019-03-28T20:24:24.565Z,2.1
2019-03-28T20:27:24.554Z,2
2019-03-28T20:30:24.628Z,1.9
2019-03-28T20:33:25.687Z,1.8
2019-03-28T20:36:44.703Z,2.3
2019-03-28T20:39:24.520Z,2.4
2019-03-28T20:42:24.611Z,3
2019-03-28T20:45:24.822Z,3.6
2019-03-28T20:48:24.604Z,3.2
2019-03-28T20:51:27.058Z,2.7
2019-03-28T20:54:24.531Z,2.7
2019-03-28T20:57:24.474Z,2.6
2019-03-28T21:00:24.451Z,3
2019-03-28T21:03:24.533Z,2.7
2019-03-28T21:06:24.704Z,2.7
2019-03-28T21:09:24.582Z,2.8
2019-03-28T21:12:24.434Z,2.5
2019-03-28T21:15:24.553Z,2.8
2019-03-28T21:18:24.408Z,3.3
2019-03-28T21:21:24.848Z,2.8
2019-03-28T21:24:24.573Z,2.7
2019-03-28T21:27:24.633Z,2.4
2019-03-28T21:30:27.607Z,2.2
2019-03-28T21:33:25.582Z,2.1
2019-03-28T21:36:32.772Z,2.1
2019-03-28T21:39:24.591Z,2.1
2019-03-28T21:42:24.568Z,2.2
2019-03-28T21:45:24.676Z,3.4
2019-03-28T21:48:24.419Z,3.2
2019-03-28T21:51:24.546Z,3.1
2019-03-28T21:54:25.497Z,3.3
2019-03-28T21:57:24.598Z,2.7
2019-03-28T22:00:24.622Z,2.5
2019-03-28T22:03:24.643Z,2.5
2019-03-28T22:06:24.475Z,2.6
2019-03-28T22:09:25.291Z,3
2019-03-28T22:12:24.504Z,2.6
2019-03-28T22:15:24.494Z,3.3
2019-03-28T22:18:24.306Z,3
2019-03-28T22:21:28.054Z,2.9
2019-03-28T22:24:24.364Z,2.6
2019-03-28T22:27:24.539Z,2.9
2019-03-28T22:30:24.551Z,2.7
2019-03-28T22:33:24.287Z,2.5
2019-03-28T22:36:24.467Z,2.5
2019-03-28T22:39:24.394Z,2.3
2019-03-28T22:42:24.430Z,2.3
2019-03-28T22:45:24.498Z,2.5
2019-03-28T22:48:24.501Z,2.5
2019-03-28T22:51:24.612Z,2.5
2019-03-28T22:54:24.633Z,2.5
2019-03-28T22:57:24.235Z,2.6
2019-03-28T23:00:24.356Z,2.6
2019-03-28T23:03:24.506Z,2.7
2019-03-28T23:06:24.484Z,2.6
2019-03-28T23:09:25.433Z,2.4
2019-03-28T23:12:24.476Z,2.5
2019-03-28T23:15:24.333Z,3.2
2019-03-28T23:18:24.359Z,2.8
2019-03-28T23:21:24.431Z,2.6
2019-03-28T23:24:24.322Z,2.5
2019-03-28T23:27:24.547Z,2.5
2019-03-28T23:30:24.478Z,2.6
2019-03-28T23:33:25.447Z,2.6
2019-03-28T23:36:24.328Z,2.6
2019-03-28T23:39:24.287Z,2.5
2019-03-28T23:42:24.567Z,2.8
2019-03-28T23:45:24.453Z,2.9
2019-03-28T23:48:24.497Z,2.7
2019-03-28T23:51:25.318Z,2.6
2019-03-28T23:54:24.365Z,2.6
2019-03-28T23:57:24.374Z,2.5
